Time;durP1;ratioP1;P1;durP2;ratioP2;P2;SDS_P1;SDS_P2;PMS_P1;PMS_P2;Temp;Humidity;BMP_temperature;BMP_pressure;BME280_temperature;BME280_humidity;BME280_pressure;Samples;Min_cycle;Max_cycle;Signal;HPM_P1;HPM_P2
2022/02/04 00:23:58;;;;;;;14.60;8.23;;;;;;;;;;4955468;28;20040;-81
2022/02/04 00:26:33;;;;;;;15.65;9.15;;;;;;;;;;4956696;29;20097;-82
2022/02/04 00:31:40;;;;;;;17.25;9.30;;;;;;;;;;4955367;29;20027;-81
2022/02/04 00:34:11;;;;;;;13.52;8.20;;;;;;;;;;4957690;28;20162;-81
2022/02/04 00:39:09;;;;;;;15.95;9.38;;;;;;;;;;4952849;29;20027;-80
2022/02/04 00:41:38;;;;;;;18.55;9.27;;;;;;;;;;4958962;28;20074;-81
2022/02/04 00:44:06;;;;;;;16.55;9.93;;;;;;;;;;4957197;28;20058;-81
2022/02/04 00:46:44;;;;;;;16.27;9.35;;;;;;;;;;4957366;28;20023;-82
2022/02/04 00:49:28;;;;;;;15.40;9.48;;;;;;;;;;4956125;29;20027;-81
2022/02/04 00:54:24;;;;;;;15.60;9.85;;;;;;;;;;4957588;28;20445;-82
2022/02/04 01:27:02;;;;;;;14.85;8.68;;;;;;;;;;4954904;28;20090;-78
2022/02/04 01:29:33;;;;;;;15.55;8.60;;;;;;;;;;4963585;28;20027;-78
2022/02/04 01:31:59;;;;;;;14.30;8.77;;;;;;;;;;4967860;28;20062;-78
2022/02/04 01:34:25;;;;;;;14.88;8.70;;;;;;;;;;4957888;29;20055;-78
2022/02/04 01:36:51;;;;;;;18.77;9.52;;;;;;;;;;4967325;28;20410;-78
2022/02/04 01:39:21;;;;;;;16.20;9.27;;;;;;;;;;4955764;28;20031;-78
2022/02/04 01:41:46;;;;;;;16.15;9.27;;;;;;;;;;4947755;28;20478;-79
2022/02/04 01:44:26;;;;;;;16.05;9.48;;;;;;;;;;4964832;28;20042;-79
2022/02/04 01:46:52;;;;;;;20.40;11.25;;;;;;;;;;4955735;28;20038;-79
2022/02/04 01:49:18;;;;;;;17.70;9.07;;;;;;;;;;4957502;28;20038;-78
2022/02/04 01:51:45;;;;;;;14.93;9.18;;;;;;;;;;4966715;28;20027;-78
2022/02/04 01:54:11;;;;;;;18.60;10.57;;;;;;;;;;4945172;29;20023;-78
2022/02/04 01:56:37;;;;;;;17.17;9.75;;;;;;;;;;4961988;28;20031;-79
2022/02/04 01:59:03;;;;;;;21.88;11.20;;;;;;;;;;4960357;28;20031;-79
2022/02/04 02:01:29;;;;;;;17.38;10.00;;;;;;;;;;4952465;28;20027;-78
2022/02/04 02:03:57;;;;;;;25.13;11.25;;;;;;;;;;4956149;29;20315;-78
2022/02/04 02:06:57;;;;;;;21.73;11.90;;;7.20;99.90;;;;;;4959926;28;20490;-78
2022/02/04 02:09:30;;;;;;;18.67;9.18;;;;;;;;;;4958229;29;20031;-78
2022/02/04 02:12:00;;;;;;;16.73;9.95;;;;;;;;;;4958183;28;20050;-78
2022/02/04 02:14:28;;;;;;;18.92;10.50;;;;;;;;;;4970241;28;20027;-78
2022/02/04 02:33:04;;;;;;;17.55;10.05;;;;;;;;;;4966163;28;20027;-78
2022/02/04 02:33:54;;;;;;;18.95;11.23;;;;;;;;;;4950551;28;20111;-78
2022/02/04 02:55:24;;;;;;;20.17;11.10;;;;;;;;;;4936218;28;20078;-79
2022/02/04 03:02:53;;;;;;;18.98;10.60;;;;;;;;;;4953972;28;20035;-79
2022/02/04 03:05:19;;;;;;;20.60;10.32;;;;;;;;;;4958426;28;20126;-79
2022/02/04 03:07:45;;;;;;;17.75;9.93;;;;;;;;;;4941857;29;20027;-78
2022/02/04 03:10:11;;;;;;;17.83;9.80;;;;;;;;;;4959877;28;20017;-78
2022/02/04 03:12:41;;;;;;;16.35;9.23;;;;;;;;;;4951347;28;20024;-79
2022/02/04 03:15:08;;;;;;;16.45;9.85;;;;;;;;;;4957691;28;20135;-78
2022/02/04 03:17:34;;;;;;;17.17;9.02;;;;;;;;;;4942554;28;20027;-78
2022/02/04 03:20:05;;;;;;;15.90;8.73;;;;;;;;;;4954404;28;20039;-79
2022/02/04 03:22:31;;;;;;;14.40;8.23;;;;;;;;;;4957553;28;20087;-82
2022/02/04 03:25:01;;;;;;;15.50;8.82;;;;;;;;;;4957512;28;20012;-82
2022/02/04 03:27:34;;;;;;;14.52;8.52;;;;;;;;;;4962146;28;20011;-82
2022/02/04 03:32:30;;;;;;;14.70;8.48;;;;;;;;;;4975191;28;20039;-79
2022/02/04 03:34:56;;;;;;;15.85;8.90;;;;;;;;;;4962752;29;20031;-78
2022/02/04 03:37:22;;;;;;;14.82;8.80;;;;;;;;;;4958655;28;20059;-80
2022/02/04 03:39:48;;;;;;;19.95;9.00;;;;;;;;;;4942027;29;20065;-78
2022/02/04 03:42:14;;;;;;;14.48;8.55;;;;;;;;;;4955970;28;20126;-78
2022/02/04 03:44:40;;;;;;;14.60;8.98;;;;;;;;;;4962882;28;20035;-78
2022/02/04 03:47:06;;;;;;;16.73;9.43;;;;;;;;;;4948627;28;20094;-79
2022/02/04 03:49:32;;;;;;;17.63;9.32;;;;;;;;;;4965773;28;20042;-78
2022/02/04 03:51:58;;;;;;;16.67;9.50;;;;;;;;;;4967090;28;20022;-78
2022/02/04 03:54:24;;;;;;;16.50;9.88;;;;;;;;;;4960769;28;20023;-78
2022/02/04 03:56:51;;;;;;;18.02;10.68;;;;;;;;;;4945538;29;20402;-78
2022/02/04 03:59:17;;;;;;;18.45;9.93;;;;;;;;;;4959723;28;20027;-78
2022/02/04 04:01:45;;;;;;;19.73;10.73;;;;;;;;;;4951350;28;20081;-78
2022/02/04 04:04:11;;;;;;;17.83;10.90;;;;;;;;;;4940523;29;20035;-78
2022/02/04 04:06:37;;;;;;;18.25;10.40;;;6.70;99.90;;;;;;4944691;29;20038;-78
2022/02/04 04:09:07;;;;;;;17.38;10.07;;;6.60;99.90;;;;;;4962778;28;20023;-78
2022/02/04 04:11:34;;;;;;;15.88;8.95;;;;;;;;;;4967588;28;20170;-78
2022/02/04 04:14:00;;;;;;;20.30;10.98;;;6.90;99.90;;;;;;4959734;28;20110;-78
2022/02/04 04:16:31;;;;;;;17.88;9.90;;;;;;;;;;4941117;28;20079;-78
2022/02/04 04:18:57;;;;;;;15.57;9.18;;;6.90;99.90;;;;;;4958791;28;20175;-79
2022/02/04 04:21:31;;;;;;;17.73;9.88;;;6.90;99.90;;;;;;4959076;28;20035;-78
2022/02/04 04:23:58;;;;;;;15.88;9.55;;;7.10;99.90;;;;;;4940096;29;20491;-78
2022/02/04 04:26:24;;;;;;;17.70;9.75;;;;;;;;;;4938896;28;20027;-78
2022/02/04 04:28:50;;;;;;;17.90;10.23;;;;;;;;;;4962543;28;20027;-78
2022/02/04 04:31:18;;;;;;;16.70;9.75;;;;;;;;;;4928425;28;20047;-79
2022/02/04 04:33:48;;;;;;;18.25;9.60;;;7.10;99.90;;;;;;4945770;28;20066;-78
2022/02/04 04:36:18;;;;;;;19.23;9.93;;;;;;;;;;4962638;28;20042;-79
2022/02/04 04:39:24;;;;;;;17.87;9.67;;;;;;;;;;4962400;28;20054;-78
2022/02/04 04:44:51;;;;;;;17.23;9.32;;;;;;;;;;4957239;28;20027;-79
2022/02/04 05:31:13;;;;;;;16.05;8.20;;;;;;;;;;4955951;28;20106;-78
2022/02/04 05:33:40;;;;;;;13.10;7.82;;;7.00;99.90;;;;;;4945349;29;20032;-79
2022/02/04 05:36:09;;;;;;;12.85;7.20;;;6.90;99.90;;;;;;4956720;28;20041;-79
2022/02/04 05:38:39;;;;;;;12.35;7.22;;;7.00;99.90;;;;;;4939572;29;20086;-80
2022/02/04 05:41:07;;;;;;;12.75;6.97;;;;;;;;;;4961397;28;20023;-78
2022/02/04 05:43:37;;;;;;;11.02;6.22;;;6.80;99.90;;;;;;4957647;28;20031;-78
2022/02/04 05:46:10;;;;;;;11.43;6.53;;;;;;;;;;4939895;29;20054;-79
2022/02/04 05:48:44;;;;;;;12.32;7.35;;;7.00;99.90;;;;;;4941145;28;20066;-78
2022/02/04 05:56:51;;;;;;;11.55;6.50;;;6.70;99.90;;;;;;4957431;28;20046;-78
2022/02/04 05:59:44;;;;;;;11.30;6.50;;;6.90;99.90;;;;;;4934922;29;20027;-78
2022/02/04 06:07:09;;;;;;;11.38;6.05;;;;;;;;;;4953374;28;20042;-78
2022/02/04 06:22:55;;;;;;;9.43;4.75;;;;;;;;;;4960105;28;20061;-76
2022/02/04 06:25:20;;;;;;;8.05;5.15;;;6.80;99.90;;;;;;4955008;28;20030;-78
2022/02/04 06:27:46;;;;;;;8.70;5.13;;;6.90;99.90;;;;;;4958960;28;20058;-78
2022/02/04 06:30:13;;;;;;;8.20;4.75;;;6.80;99.90;;;;;;4953083;28;20150;-78
2022/02/04 06:32:43;;;;;;;8.68;5.25;;;;;;;;;;4936931;29;20038;-78
2022/02/04 06:35:10;;;;;;;8.48;4.75;;;6.90;99.90;;;;;;4944403;29;20106;-77
2022/02/04 06:37:39;;;;;;;9.63;4.90;;;;;;;;;;4951450;28;20582;-78
2022/02/04 06:40:05;;;;;;;9.23;4.50;;;;;;;;;;4952615;28;20110;-78
2022/02/04 06:42:31;;;;;;;10.07;4.50;;;;;;;;;;4956793;28;20027;-79
2022/02/04 06:44:58;;;;;;;8.13;4.18;;;;;;;;;;4959570;28;20090;-78
2022/02/04 06:47:25;;;;;;;8.38;4.40;;;6.90;99.90;;;;;;4956204;28;20024;-77
2022/02/04 06:49:52;;;;;;;7.22;4.40;;;;;;;;;;4933549;29;20039;-77
2022/02/04 06:52:18;;;;;;;7.78;4.60;;;;;;;;;;4938157;29;20050;-76
2022/02/04 06:54:45;;;;;;;8.35;4.15;;;;;;;;;;4939962;29;20016;-78
2022/02/04 06:57:12;;;;;;;6.70;4.03;;;6.90;99.90;;;;;;4954004;28;20031;-78
2022/02/04 06:59:42;;;;;;;7.47;4.95;;;;;;;;;;4957079;28;20038;-80
2022/02/04 07:02:08;;;;;;;8.43;3.72;;;;;;;;;;4953425;28;20541;-77
2022/02/04 07:04:35;;;;;;;8.13;3.90;;;7.00;99.90;;;;;;4959705;28;20039;-77
2022/02/04 07:07:02;;;;;;;5.95;3.70;;;7.00;99.90;;;;;;4938249;28;20189;-77
2022/02/04 07:09:43;;;;;;;6.32;3.60;;;;;;;;;;4955694;28;20024;-78
2022/02/04 07:19:47;;;;;;;6.65;3.75;;;6.90;99.90;;;;;;4953080;28;20039;-79
2022/02/04 07:22:34;;;;;;;5.78;3.58;;;6.80;99.90;;;;;;4936761;29;20402;-77
2022/02/04 07:25:04;;;;;;;7.72;3.63;;;6.90;99.90;;;;;;4936276;29;20035;-77
2022/02/04 07:27:34;;;;;;;6.78;3.67;;;6.90;99.90;;;;;;4962836;28;20444;-78
2022/02/04 07:30:00;;;;;;;5.65;3.13;;;;;;;;;;4947368;28;21173;-79
2022/02/04 07:32:36;;;;;;;6.00;3.67;;;6.90;99.90;;;;;;4960245;28;20031;-79
2022/02/04 07:40:54;;;;;;;6.90;3.25;;;7.00;99.90;;;;;;4961196;28;20035;-78
2022/02/04 07:43:22;;;;;;;6.38;3.17;;;6.90;99.90;;;;;;4960830;28;20037;-79
2022/02/04 07:45:51;;;;;;;6.43;3.20;;;6.80;99.90;;;;;;4940508;29;20510;-77
2022/02/04 07:48:17;;;;;;;6.05;3.33;;;6.90;99.90;;;;;;4947307;29;20035;-76
2022/02/04 07:50:44;;;;;;;6.20;3.35;;;6.90;99.90;;;;;;4966628;28;20031;-79
2022/02/04 07:53:13;;;;;;;5.75;3.20;;;6.90;99.90;;;;;;4963100;28;20027;-77
2022/02/04 07:55:39;;;;;;;5.20;3.10;;;7.00;99.90;;;;;;4944365;29;20027;-78
2022/02/04 07:58:05;;;;;;;7.70;3.15;;;;;;;;;;4943524;29;20495;-78
2022/02/04 08:00:31;;;;;;;5.88;3.28;;;7.00;99.90;;;;;;4960628;28;20114;-78
2022/02/04 08:03:04;;;;;;;6.25;3.40;;;;;;;;;;4961235;28;20058;-77
2022/02/04 08:05:31;;;;;;;5.70;3.10;;;6.80;99.90;;;;;;4968699;28;20031;-76
2022/02/04 08:08:14;;;;;;;5.65;3.17;;;;;;;;;;4944331;29;20024;-77
2022/02/04 08:10:54;;;;;;;5.60;2.95;;;;;;;;;;4946218;28;20023;-79
2022/02/04 08:16:42;;;;;;;5.28;2.90;;;7.00;99.90;;;;;;4958568;28;20038;-77
2022/02/04 08:34:54;;;;;;;4.53;2.83;;;;;;;;;;4961620;28;20062;-80
2022/02/04 08:48:41;;;;;;;3.47;2.30;;;;;;;;;;4959329;28;20074;-77
2022/02/04 08:51:17;;;;;;;4.13;2.38;;;7.10;99.90;;;;;;4961106;28;20031;-76
2022/02/04 08:56:15;;;;;;;8.00;4.07;;;7.00;99.90;;;;;;4959655;28;20600;-76
2022/02/04 08:58:50;;;;;;;4.05;2.35;;;7.00;99.90;;;;;;4944055;28;20027;-77
2022/02/04 09:01:31;;;;;;;4.30;2.22;;;;;;;;;;4941497;28;20569;-78
2022/02/04 09:04:14;;;;;;;5.93;2.50;;;;;;;;;;4943133;29;20093;-80
2022/02/04 09:06:44;;;;;;;3.88;2.38;;;7.10;99.90;;;;;;4952545;28;20053;-77
2022/02/04 09:09:25;;;;;;;3.90;2.60;;;;;;;;;;4944318;28;20058;-79
2022/02/04 09:12:00;;;;;;;;;;;7.10;99.90;;;;;;4954495;28;20036;-79
2022/02/04 09:17:25;;;;;;;4.35;2.42;;;7.00;99.90;;;;;;4962443;28;20105;-78
2022/02/04 09:24:51;;;;;;;4.82;2.58;;;;;;;;;;4960595;28;20031;-80
2022/02/04 09:27:18;;;;;;;4.03;2.53;;;7.30;99.90;;;;;;4943467;28;20111;-77
2022/02/04 09:29:44;;;;;;;5.72;2.85;;;;;;;;;;4940792;28;20028;-76
2022/02/04 09:32:10;;;;;;;3.60;2.30;;;;;;;;;;4954283;28;20118;-78
2022/02/04 09:34:36;;;;;;;4.22;2.72;;;;;;;;;;4959533;28;20035;-77
2022/02/04 09:37:02;;;;;;;5.30;2.50;;;7.10;99.90;;;;;;4954698;28;20037;-77
2022/02/04 09:39:29;;;;;;;4.15;2.30;;;;;;;;;;4931551;29;20023;-78
2022/02/04 09:41:55;;;;;;;4.63;2.88;;;7.50;99.90;;;;;;4952406;28;20027;-77
2022/02/04 09:44:21;;;;;;;3.92;2.33;;;;;;;;;;4955856;28;20406;-78
2022/02/04 09:46:47;;;;;;;5.47;3.20;;;;;;;;;;4939621;28;20024;-77
2022/02/04 09:49:21;;;;;;;5.10;3.03;;;;;;;;;;4953035;28;20265;-76
2022/02/04 10:08:55;;;;;;;9.52;5.90;;;7.20;99.90;;;;;;4954095;28;20513;-79
2022/02/04 10:19:27;;;;;;;7.97;5.18;;;7.40;99.90;;;;;;4953596;28;20031;-79
2022/02/04 10:22:01;;;;;;;7.43;5.05;;;7.40;99.90;;;;;;4932600;28;20035;-76
2022/02/04 10:24:29;;;;;;;8.20;5.57;;;7.40;99.90;;;;;;4943110;29;20019;-76
2022/02/04 10:27:18;;;;;;;7.22;5.00;;;7.40;99.90;;;;;;4948421;28;20483;-77
2022/02/04 10:29:56;;;;;;;6.13;4.15;;;7.50;99.90;;;;;;4951444;28;20430;-76
2022/02/04 10:32:47;;;;;;;8.10;4.88;;;7.40;99.90;;;;;;4940135;28;20034;-77
2022/02/04 10:35:26;;;;;;;5.95;3.92;;;7.50;99.90;;;;;;4946105;28;20042;-77
2022/02/04 10:41:04;;;;;;;5.93;3.95;;;7.50;99.90;;;;;;4924542;28;20118;-79
2022/02/04 10:46:20;;;;;;;5.95;3.50;;;7.60;99.90;;;;;;4949580;28;20551;-78
2022/02/04 11:04:14;;;;;;;4.88;3.10;;;8.20;99.90;;;;;;4957996;28;20035;-78
2022/02/04 11:11:51;;;;;;;4.43;3.00;;;;;;;;;;4962307;28;20167;-78
2022/02/04 11:36:09;;;;;;;4.78;2.88;;;8.80;99.90;;;;;;4956851;28;20066;-78
2022/02/04 11:48:04;;;;;;;2.88;1.85;;;8.60;99.90;;;;;;4925148;28;20042;-77
2022/02/04 11:53:36;;;;;;;3.72;2.03;;;8.60;99.90;;;;;;4951067;28;20101;-78
2022/02/04 11:56:02;;;;;;;4.20;1.85;;;8.50;99.90;;;;;;4950878;28;20027;-76
2022/02/04 11:58:28;;;;;;;4.57;2.58;;;;;;;;;;4936616;28;20043;-79
2022/02/04 12:01:05;;;;;;;3.20;1.70;;;8.30;99.90;;;;;;4953259;28;20106;-77
2022/02/04 12:03:36;;;;;;;3.42;1.50;;;8.30;99.90;;;;;;4962351;28;20058;-77
2022/02/04 12:06:02;;;;;;;;;;;8.40;99.90;;;;;;4946427;28;20039;-77
2022/02/04 12:08:31;;;;;;;2.22;1.42;;;;;;;;;;4957927;28;19911;-78
2022/02/04 12:10:59;;;;;;;2.35;1.50;;;8.40;99.90;;;;;;4957894;28;20126;-77
2022/02/04 12:13:26;;;;;;;3.30;1.65;;;;;;;;;;4959985;28;20529;-79
2022/02/04 12:15:55;;;;;;;2.53;1.52;;;;;;;;;;4942285;28;20039;-78
2022/02/04 12:18:23;;;;;;;2.30;1.55;;;8.10;99.90;;;;;;4941117;29;20094;-77
2022/02/04 12:20:56;;;;;;;3.22;1.67;;;;;;;;;;4937826;28;20019;-78
2022/02/04 12:23:28;;;;;;;2.67;1.73;;;8.40;99.90;;;;;;4941465;29;20487;-78
2022/02/04 12:26:11;;;;;;;1.83;1.35;;;8.30;99.90;;;;;;4945665;28;21436;-77
2022/02/04 12:28:58;;;;;;;3.20;1.73;;;8.10;99.90;;;;;;4941483;28;20399;-77
2022/02/04 12:31:30;;;;;;;2.28;1.63;;;8.10;99.90;;;;;;4941835;28;20239;-76
2022/02/04 12:34:11;;;;;;;3.05;1.70;;;;;;;;;;4961366;28;20046;-77
2022/02/04 12:36:43;;;;;;;4.20;2.70;;;;;;;;;;4958861;28;20023;-79
2022/02/04 12:39:15;;;;;;;3.65;1.70;;;;;;;;;;4958400;28;20034;-77
2022/02/04 12:41:45;;;;;;;3.22;1.77;;;7.80;99.90;;;;;;4958150;28;20028;-77
2022/02/04 12:44:17;;;;;;;2.88;1.75;;;7.90;99.90;;;;;;4952444;28;20095;-76
2022/02/04 12:46:46;;;;;;;2.55;1.70;;;7.90;99.90;;;;;;4951449;28;20035;-75
2022/02/04 12:49:14;;;;;;;2.92;1.80;;;8.00;99.90;;;;;;4954748;28;20035;-78
2022/02/04 12:54:30;;;;;;;2.50;1.60;;;;;;;;;;4956933;28;20039;-77
2022/02/04 13:03:01;;;;;;;2.65;2.00;;;;;;;;;;4957626;28;20044;-77
2022/02/04 13:08:23;;;;;;;2.42;1.70;;;8.30;99.90;;;;;;4955444;28;20062;-76
2022/02/04 13:11:11;;;;;;;5.32;2.70;;;8.30;99.90;;;;;;4938800;29;20038;-78
2022/02/04 13:13:48;;;;;;;3.85;2.10;;;8.30;99.90;;;;;;4959254;28;20054;-77
2022/02/04 13:16:24;;;;;;;3.10;1.80;;;;;;;;;;4943655;28;20027;-78
2022/02/04 13:18:51;;;;;;;17.52;8.23;;;;;;;;;;4951791;28;20066;-77
2022/02/04 13:21:17;;;;;;;14.80;9.05;;;;;;;;;;4958412;28;20035;-78
2022/02/04 13:23:43;;;;;;;2.72;1.70;;;7.90;99.90;;;;;;4958999;28;20115;-77
2022/02/04 13:26:09;;;;;;;2.85;1.65;;;;;;;;;;4954622;28;20043;-77
2022/02/04 13:28:39;;;;;;;3.00;1.90;;;8.00;99.90;;;;;;4942488;28;20039;-75
2022/02/04 13:31:08;;;;;;;3.47;1.63;;;7.90;99.90;;;;;;4959521;28;20031;-78
2022/02/04 13:33:42;;;;;;;3.50;2.13;;;8.00;99.90;;;;;;4961609;28;20181;-77
2022/02/04 13:41:32;;;;;;;3.55;1.80;;;8.10;99.90;;;;;;4958666;28;20054;-78
2022/02/04 13:58:32;;;;;;;5.30;2.20;;;8.00;99.90;;;;;;4963153;28;20033;-78
2022/02/04 14:03:33;;;;;;;5.20;1.83;;;8.00;99.90;;;;;;4961356;28;20039;-80
2022/02/04 14:06:06;;;;;;;2.58;1.75;;;8.00;99.90;;;;;;4957640;28;20087;-77
2022/02/04 14:08:44;;;;;;;3.70;2.03;;;8.00;99.90;;;;;;4961542;28;20027;-78
2022/02/04 14:11:10;;;;;;;2.33;1.58;;;;;;;;;;4942090;29;20038;-76
2022/02/04 14:13:36;;;;;;;2.38;1.75;;;;;;;;;;4960897;28;20038;-78
2022/02/04 14:16:07;;;;;;;4.40;1.88;;;8.00;99.90;;;;;;4957122;28;20034;-77
2022/02/04 14:18:36;;;;;;;4.55;1.85;;;8.00;99.90;;;;;;4937297;28;20110;-78
2022/02/04 14:21:03;;;;;;;3.58;2.13;;;8.00;99.90;;;;;;4939482;29;20498;-77
2022/02/04 14:23:29;;;;;;;4.32;2.25;;;;;;;;;;4951839;28;20065;-77
2022/02/04 14:26:06;;;;;;;4.25;2.83;;;;;;;;;;4941373;28;20446;-79
2022/02/04 14:52:53;;;;;;;4.57;3.53;;;7.70;99.90;;;;;;4956209;28;20638;-77
2022/02/04 15:00:59;;;;;;;4.68;3.47;;;;;;;;;;4952450;28;20046;-80
2022/02/04 15:03:31;;;;;;;5.95;4.15;;;;;;;;;;4952005;28;20414;-78
2022/02/04 15:06:22;;;;;;;5.55;4.03;;;7.90;99.90;;;;;;4959410;28;20028;-76
2022/02/04 15:08:48;;;;;;;5.57;3.38;;;7.70;99.90;;;;;;4955552;28;20050;-77
2022/02/04 15:11:16;;;;;;;4.68;3.47;;;7.70;99.90;;;;;;4945478;29;20093;-78
2022/02/04 15:13:44;;;;;;;5.30;3.42;;;7.60;99.90;;;;;;4956130;28;20078;-78
2022/02/04 15:16:10;;;;;;;6.85;3.80;;;;;;;;;;4952241;28;20028;-78
2022/02/04 15:18:41;;;;;;;6.20;2.95;;;7.50;99.90;;;;;;4949975;28;20055;-78
2022/02/04 15:21:14;;;;;;;3.88;2.90;;;7.60;99.90;;;;;;4950914;28;20550;-77
2022/02/04 15:23:41;;;;;;;3.95;2.63;;;7.70;99.90;;;;;;4934302;29;20039;-77
2022/02/04 15:26:10;;;;;;;4.53;2.55;;;;;;;;;;4940527;28;20031;-77
2022/02/04 15:28:43;;;;;;;3.78;2.60;;;;;;;;;;4953720;28;20353;-77
2022/02/04 15:31:22;;;;;;;3.15;2.20;;;7.50;99.90;;;;;;4951155;28;20454;-77
2022/02/04 15:33:50;;;;;;;3.63;2.33;;;;;;;;;;4937001;29;20037;-77
2022/02/04 15:36:24;;;;;;;4.18;2.45;;;7.60;99.90;;;;;;4960845;28;20073;-77
2022/02/04 15:38:51;;;;;;;4.60;2.35;;;7.60;99.90;;;;;;4933295;29;20024;-79
2022/02/04 15:41:17;;;;;;;3.95;2.50;;;;;;;;;;4943387;28;20043;-81
2022/02/04 15:43:49;;;;;;;4.07;2.20;;;;;;;;;;4959271;28;20039;-81
2022/02/04 15:46:37;;;;;;;4.43;2.85;;;7.80;99.90;;;;;;4977410;28;20031;-78
2022/02/04 15:54:48;;;;;;;4.05;2.47;;;7.50;99.90;;;;;;4958821;28;20714;-78
2022/02/04 16:04:47;;;;;;;7.57;2.50;;;;;;;;;;4962339;28;20028;-77
2022/02/04 16:07:15;;;;;;;4.15;2.60;;;7.80;99.90;;;;;;4956534;28;20058;-77
2022/02/04 16:09:41;;;;;;;3.40;2.20;;;7.50;99.90;;;;;;4950502;28;20470;-77
2022/02/04 16:12:19;;;;;;;6.38;2.60;;;;;;;;;;4958517;28;20073;-79
2022/02/04 16:14:54;;;;;;;3.83;2.35;;;7.70;99.90;;;;;;4952188;28;20039;-77
2022/02/04 16:17:38;;;;;;;3.90;2.20;;;7.70;99.90;;;;;;4958512;28;20027;-77
2022/02/04 16:30:44;;;;;;;3.55;2.25;;;;;;;;;;4955265;28;20086;-78
2022/02/04 16:33:10;;;;;;;3.13;1.95;;;;;;;;;;4943066;29;20039;-77
2022/02/04 16:35:36;;;;;;;4.43;2.63;;;;;;;;;;4956905;28;20031;-77
2022/02/04 16:38:03;;;;;;;5.38;2.85;;;;;;;;;;4951577;28;20031;-78
2022/02/04 16:40:32;;;;;;;5.68;3.20;;;7.80;99.90;;;;;;4938665;28;20055;-77
2022/02/04 16:42:58;;;;;;;4.07;2.55;;;;;;;;;;4959627;28;20035;-80
2022/02/04 16:45:24;;;;;;;5.70;3.13;;;7.90;99.90;;;;;;4959787;28;20039;-76
2022/02/04 16:47:55;;;;;;;4.40;2.88;;;;;;;;;;4958887;28;20508;-78
2022/02/04 16:50:21;;;;;;;3.42;2.42;;;8.40;99.90;;;;;;4938216;28;20098;-78
2022/02/04 16:52:52;;;;;;;5.18;2.55;;;8.00;99.90;;;;;;4940225;29;20086;-78
2022/02/04 16:55:19;;;;;;;4.22;2.45;;;8.00;99.90;;;;;;4946625;29;20023;-77
2022/02/04 16:57:46;;;;;;;4.28;2.55;;;;;;;;;;4962731;28;20035;-78
2022/02/04 17:00:23;;;;;;;4.63;2.40;;;8.50;99.90;;;;;;4963346;28;20023;-77
2022/02/04 17:02:51;;;;;;;4.28;2.55;;;8.10;99.90;;;;;;4970064;28;20023;-78
2022/02/04 17:05:18;;;;;;;4.18;2.40;;;;;;;;;;4959032;28;20356;-77
2022/02/04 17:07:52;;;;;;;4.90;2.60;;;;;;;;;;4954116;28;20055;-79
2022/02/04 17:10:26;;;;;;;4.20;2.63;;;;;;;;;;4941449;29;20122;-78
2022/02/04 17:12:58;;;;;;;5.00;2.70;;;;;;;;;;4958610;28;20038;-78
2022/02/04 17:15:24;;;;;;;4.47;2.50;;;;;;;;;;4940108;29;20030;-79
2022/02/04 17:17:51;;;;;;;4.95;2.45;;;;;;;;;;4954662;28;20066;-79
2022/02/04 17:20:17;;;;;;;5.25;2.95;;;;;;;;;;4958131;28;20054;-78
2022/02/04 17:22:43;;;;;;;3.78;2.17;;;;;;;;;;4957695;28;20391;-78
2022/02/04 17:25:10;;;;;;;4.43;2.50;;;;;;;;;;4940495;28;20030;-78
2022/02/04 17:27:40;;;;;;;3.55;2.20;;;;;;;;;;4949241;28;20088;-78
2022/02/04 17:30:07;;;;;;;4.05;1.92;;;;;;;;;;4953799;28;20055;-78
2022/02/04 17:32:33;;;;;;;6.75;2.45;;;;;;;;;;4958708;28;20192;-77
2022/02/04 17:34:59;;;;;;;3.65;2.25;;;;;;;;;;4945094;29;20047;-78
2022/02/04 17:37:26;;;;;;;4.07;2.70;;;;;;;;;;4951688;28;20031;-78
2022/02/04 17:39:55;;;;;;;3.97;2.13;;;;;;;;;;4957478;28;20391;-78
2022/02/04 17:42:26;;;;;;;3.08;1.83;;;;;;;;;;4939274;29;20019;-76
2022/02/04 17:44:52;;;;;;;;;;;8.20;99.90;;;;;;4955400;28;20019;-80
2022/02/04 17:47:20;;;;;;;3.00;1.58;;;;;;;;;;4957435;28;20297;-78
2022/02/04 17:49:56;;;;;;;3.63;1.77;;;;;;;;;;4937057;29;20035;-78
2022/02/04 17:52:28;;;;;;;4.03;1.92;;;;;;;;;;4943645;29;20031;-79
2022/02/04 17:55:03;;;;;;;4.00;2.35;;;;;;;;;;4951355;29;20042;-79
2022/02/04 18:00:31;;;;;;;3.10;1.40;;;;;;;;;;4960489;28;20055;-78
2022/02/04 18:05:59;;;;;;;3.33;1.90;;;;;;;;;;4953509;28;20178;-77
2022/02/04 18:08:25;;;;;;;9.50;2.63;;;;;;;;;;4953648;28;20058;-79
2022/02/04 18:10:51;;;;;;;4.10;1.92;;;;;;;;;;4961696;28;20039;-78
2022/02/04 18:13:17;;;;;;;3.45;1.95;;;;;;;;;;4937051;28;20050;-78
2022/02/04 18:15:45;;;;;;;3.83;2.00;;;;;;;;;;4955011;28;20022;-78
2022/02/04 18:18:12;;;;;;;3.85;1.77;;;;;;;;;;4956102;28;20034;-78
2022/02/04 18:20:39;;;;;;;4.45;2.10;;;;;;;;;;4960042;28;20079;-78
2022/02/04 18:23:05;;;;;;;3.60;1.80;;;;;;;;;;4957722;28;20038;-79
2022/02/04 18:25:31;;;;;;;2.95;1.52;;;;;;;;;;4960370;28;20053;-78
2022/02/04 18:27:59;;;;;;;3.38;2.15;;;;;;;;;;4963127;28;20051;-79
2022/02/04 18:30:25;;;;;;;3.83;1.55;;;;;;;;;;4956082;28;20117;-78
2022/02/04 18:32:51;;;;;;;3.33;1.50;;;;;;;;;;4959440;28;20023;-79
2022/02/04 18:35:17;;;;;;;3.42;1.58;;;;;;;;;;4958044;28;20110;-76
2022/02/04 18:37:51;;;;;;;3.33;1.65;;;;;;;;;;4943929;28;20497;-79
2022/02/04 18:43:26;;;;;;;4.20;1.98;;;;;;;;;;4957006;28;20074;-78
2022/02/04 18:45:52;;;;;;;3.42;1.70;;;;;;;;;;4965124;28;20234;-77
2022/02/04 18:48:22;;;;;;;3.60;1.77;;;;;;;;;;4958191;28;20110;-77
2022/02/04 18:51:20;;;;;;;2.73;1.80;;;;;;;;;;4962625;28;20038;-78
2022/02/04 18:54:10;;;;;;;2.10;1.25;;;;;;;;;;4945944;29;20042;-77
2022/02/04 18:59:24;;;;;;;3.03;1.70;;;;;;;;;;4958211;28;20414;-79
2022/02/04 19:01:50;;;;;;;6.25;1.90;;;;;;;;;;4946696;28;20391;-79
2022/02/04 19:04:20;;;;;;;5.15;1.95;;;;;;;;;;4936568;29;20518;-79
2022/02/04 19:06:53;;;;;;;4.03;1.50;;;;;;;;;;4947853;28;21369;-79
2022/02/04 19:09:20;;;;;;;2.33;0.90;;;;;;;;;;4953495;28;20060;-78
2022/02/04 19:11:51;;;;;;;3.45;1.25;;;;;;;;;;4946199;28;20402;-77
2022/02/04 19:17:27;;;;;;;2.00;0.70;;;;;;;;;;4950774;28;20039;-78
2022/02/04 19:20:05;;;;;;;3.00;0.98;;;;;;;;;;4946451;29;20032;-78
2022/02/04 19:22:40;;;;;;;2.22;0.88;;;;;;;;;;4960640;28;20031;-78
2022/02/04 19:25:22;;;;;;;2.28;1.00;;;;;;;;;;4953983;28;20065;-82
2022/02/04 19:28:26;;;;;;;1.77;1.00;;;;;;;;;;4976625;28;20031;-83
2022/02/04 19:30:59;;;;;;;5.60;3.05;;;;;;;;;;4977947;29;20043;-83
2022/02/04 19:33:35;;;;;;;3.65;1.77;;;;;;;;;;4978104;28;20042;-83
2022/02/04 19:36:02;;;;;;;2.58;1.10;;;;;;;;;;4973626;28;20027;-82
2022/02/04 19:38:28;;;;;;;4.43;2.13;;;;;;;;;;4958532;29;20019;-81
2022/02/04 19:41:06;;;;;;;4.63;1.25;;;;;;;;;;4961342;29;20483;-82
2022/02/04 19:43:38;;;;;;;1.83;1.02;;;;;;;;;;4976451;29;20027;-83
2022/02/04 19:46:37;;;;;;;;;;;;;;;;;;;;;
2022/02/04 19:49:20;;;;;;;3.88;1.20;;;;;;;;;;4987976;28;20529;-82
2022/02/04 20:26:10;;;;;;;2.45;1.40;;;;;;;;;;4908000;29;20040;-82
2022/02/04 20:28:38;;;;;;;3.70;1.65;;;;;;;;;;4914113;29;20028;-83
2022/02/04 20:31:07;;;;;;;4.47;2.53;;;;;;;;;;4912663;29;20096;-82
2022/02/04 20:33:40;;;;;;;4.05;2.05;;;;;;;;;;4919610;29;20024;-83
2022/02/04 20:36:19;;;;;;;3.58;1.75;;;;;;;;;;4926910;29;20043;-81
2022/02/04 20:38:51;;;;;;;2.60;1.83;;;;;;;;;;4910552;29;20036;-81
2022/02/04 20:41:55;;;;;;;3.47;1.70;;;;;;;;;;4890816;29;20032;-82
2022/02/04 20:44:40;;;;;;;3.28;1.90;;;;;;;;;;4904577;29;20509;-81
2022/02/04 20:50:31;;;;;;;3.13;2.00;;;;;;;;;;4937354;28;20031;-81
2022/02/04 20:56:27;;;;;;;6.15;2.95;;;;;;;;;;4892336;29;20029;-81
2022/02/04 20:59:03;;;;;;;3.72;1.83;;;;;;;;;;4893484;29;20021;-81
2022/02/04 21:01:57;;;;;;;3.95;1.50;;;;;;;;;;4877476;29;20029;-79
2022/02/04 21:05:06;;;;;;;8.30;3.53;;;;;;;;;;4900656;29;20044;-81
2022/02/04 21:23:53;;;;;;;6.20;2.10;;;;;;;;;;4930022;29;20047;-80
2022/02/04 21:26:24;;;;;;;5.07;1.88;;;;;;;;;;4924290;29;20044;-79
2022/02/04 21:29:18;;;;;;;4.20;1.30;;;;;;;;;;4951011;29;20023;-81
2022/02/04 21:38:40;;;;;;;;;;;;;;;;;;;;;
2022/02/04 21:42:02;;;;;;;;;;;;;;;;;;;;;
2022/02/04 21:47:54;;;;;;;3.50;1.40;;;;;;;;;;4916749;29;20448;-81
2022/02/04 21:50:52;;;;;;;3.92;1.60;;;;;;;;;;4929440;29;20039;-82
2022/02/04 21:53:22;;;;;;;4.75;1.60;;;;;;;;;;4947277;29;20050;-81
2022/02/04 21:56:09;;;;;;;5.30;1.58;;;;;;;;;;4955017;29;20027;-83
2022/02/04 21:58:48;;;;;;;10.77;2.38;;;;;;;;;;4964247;29;20096;-82
2022/02/04 22:01:15;;;;;;;6.80;2.10;;;;;;;;;;4964188;29;20019;-81
2022/02/04 22:03:45;;;;;;;4.03;1.88;;;;;;;;;;4950235;29;20048;-83
2022/02/04 22:06:19;;;;;;;5.90;2.17;;;;;;;;;;4974619;28;20085;-83
2022/02/04 22:13:04;;;;;;;2.97;1.60;;;;;;;;;;4935062;29;20055;-81
2022/02/04 22:24:31;;;;;;;4.65;2.10;;;;;;;;;;4963471;29;20057;-81
2022/02/04 22:27:12;;;;;;;;;;;;;;;;;;;;;
2022/02/04 22:30:13;;;;;;;7.43;2.55;;;;;;;;;;4955044;28;20032;-81
2022/02/04 22:32:56;;;;;;;9.10;2.55;;;;;;;;;;4949047;29;20575;-80
2022/02/04 22:46:39;;;;;;;10.13;3.10;;;;;;;;;;4967765;28;20120;-81
2022/02/04 22:49:30;;;;;;;10.38;3.35;;;;;;;;;;4962442;28;20403;-80
2022/02/04 22:57:26;;;;;;;8.32;3.80;;;;;;;;;;4965725;28;20031;-82
2022/02/04 22:59:56;;;;;;;9.77;3.50;;;;;;;;;;4956164;29;20055;-82
2022/02/04 23:02:28;;;;;;;9.13;3.33;;;;;;;;;;4943829;29;20027;-83